createdAt,value
2018-10-18T00:01:31.787Z,96.30
2018-10-18T00:04:01.132Z,95.90
2018-10-18T00:06:30.815Z,95.70
2018-10-18T00:09:00.466Z,96.50
2018-10-18T00:11:29.768Z,96.40
2018-10-18T00:13:59.178Z,96.30
2018-10-18T00:16:29.499Z,96.10
2018-10-18T00:18:59.277Z,96.10
2018-10-18T00:21:28.652Z,95.70
2018-10-18T00:23:59.464Z,96.00
2018-10-18T00:26:30.812Z,95.90
2018-10-18T00:29:01.905Z,96.50
2018-10-18T00:31:31.762Z,97.20
2018-10-18T00:34:01.271Z,97.40
2018-10-18T00:36:31.238Z,97.30
2018-10-18T00:39:01.342Z,97.20
2018-10-18T00:41:30.718Z,97.20
2018-10-18T00:44:00.347Z,97.20
2018-10-18T00:46:30.791Z,96.90
2018-10-18T00:49:00.871Z,97.50
2018-10-18T00:51:31.474Z,97.90
2018-10-18T00:54:00.993Z,97.30
2018-10-18T00:56:31.612Z,97.00
2018-10-18T00:59:02.296Z,97.50
2018-10-18T01:01:32.282Z,97.20
2018-10-18T01:04:02.147Z,98.00
2018-10-18T01:06:31.439Z,98.20
2018-10-18T01:09:00.523Z,98.20
2018-10-18T01:11:29.623Z,98.10
2018-10-18T01:13:58.671Z,97.60
2018-10-18T01:16:28.759Z,97.50
2018-10-18T01:18:58.096Z,97.50
2018-10-18T01:21:27.624Z,97.10
2018-10-18T01:23:57.089Z,97.20
2018-10-18T01:26:26.699Z,97.50
2018-10-18T01:28:56.077Z,97.50
2018-10-18T01:31:25.835Z,97.70
2018-10-18T01:33:54.951Z,97.10
2018-10-18T01:36:24.707Z,97.50
2018-10-18T01:38:53.932Z,97.40
2018-10-18T01:41:23.295Z,97.50
2018-10-18T01:43:53.627Z,98.60
2018-10-18T01:46:23.325Z,99.20
2018-10-18T01:48:52.314Z,98.80
2018-10-18T01:51:21.680Z,98.80
2018-10-18T01:53:50.924Z,98.20
2018-10-18T01:56:20.295Z,98.90
2018-10-18T01:58:50.496Z,98.80
2018-10-18T02:01:20.047Z,98.60
2018-10-18T02:03:50.369Z,98.30
2018-10-18T02:06:20.179Z,98.20
2018-10-18T02:08:49.962Z,98.00
2018-10-18T02:11:19.190Z,97.90
2018-10-18T02:13:48.492Z,98.00
2018-10-18T02:16:18.917Z,98.00
2018-10-18T02:18:48.849Z,97.70
2018-10-18T02:21:18.665Z,97.70
2018-10-18T02:23:48.317Z,98.10
2018-10-18T02:26:17.995Z,98.80
2018-10-18T02:28:47.748Z,98.00
2018-10-18T02:31:17.339Z,97.50
2018-10-18T02:33:47.211Z,97.40
2018-10-18T02:36:17.415Z,97.40
2018-10-18T02:38:47.397Z,97.20
2018-10-18T02:41:17.154Z,97.70
2018-10-18T02:43:46.702Z,97.70
2018-10-18T02:46:16.451Z,97.80
2018-10-18T02:48:45.864Z,97.60
2018-10-18T02:51:15.246Z,97.60
2018-10-18T02:53:44.656Z,97.70
2018-10-18T02:56:14.069Z,98.00
2018-10-18T02:58:43.186Z,98.00
2018-10-18T03:01:12.317Z,97.60
2018-10-18T03:03:41.297Z,97.70
2018-10-18T03:06:10.865Z,98.60
2018-10-18T03:08:40.094Z,98.30
2018-10-18T03:11:09.563Z,98.30
2018-10-18T03:13:39.114Z,98.70
2018-10-18T03:16:08.536Z,99.50
2018-10-18T03:18:37.871Z,98.60
2018-10-18T03:21:07.462Z,98.50
2018-10-18T03:23:37.102Z,98.40
2018-10-18T03:26:06.718Z,98.40
2018-10-18T03:28:35.928Z,98.40
2018-10-18T03:31:05.968Z,98.80
2018-10-18T03:33:36.269Z,98.20
2018-10-18T03:36:06.741Z,98.40
2018-10-18T03:38:36.648Z,98.80
2018-10-18T03:41:06.617Z,98.50
2018-10-18T03:43:36.119Z,98.60
2018-10-18T03:46:05.799Z,99.00
2018-10-18T03:48:35.715Z,99.00
2018-10-18T03:51:05.173Z,98.30
2018-10-18T03:53:35.182Z,98.00
2018-10-18T03:56:06.797Z,98.00
2018-10-18T03:58:36.337Z,98.10
2018-10-18T04:01:06.896Z,97.50
2018-10-18T04:03:36.723Z,98.10
2018-10-18T04:06:06.661Z,99.10
2018-10-18T04:08:36.231Z,98.70
2018-10-18T04:11:06.218Z,99.70
2018-10-18T04:13:36.418Z,99.60
2018-10-18T04:16:06.516Z,99.10
2018-10-18T04:18:36.260Z,98.30
2018-10-18T04:21:06.409Z,99.00
2018-10-18T04:23:36.206Z,98.60
2018-10-18T04:26:05.667Z,98.10
2018-10-18T04:28:37.055Z,98.00
2018-10-18T04:31:06.563Z,98.10
2018-10-18T04:33:36.427Z,98.40
2018-10-18T04:36:06.204Z,98.60
2018-10-18T04:38:36.018Z,98.60
2018-10-18T04:41:06.451Z,99.30
2018-10-18T04:43:36.412Z,99.30
2018-10-18T04:46:06.699Z,99.00
2018-10-18T04:48:37.009Z,99.10
2018-10-18T04:51:07.029Z,99.00
2018-10-18T04:53:36.123Z,99.20
2018-10-18T04:56:05.618Z,99.50
2018-10-18T04:58:34.687Z,99.40
2018-10-18T05:01:03.790Z,99.30
2018-10-18T05:03:33.096Z,98.80
2018-10-18T05:06:03.855Z,99.10
2018-10-18T05:08:33.255Z,98.80
2018-10-18T05:11:02.667Z,98.70
2018-10-18T05:13:32.228Z,98.80
2018-10-18T05:16:01.834Z,98.60
2018-10-18T05:18:31.175Z,98.40
2018-10-18T05:21:00.513Z,98.80
2018-10-18T05:23:29.574Z,98.90
2018-10-18T05:25:59.186Z,99.00
2018-10-18T05:28:29.310Z,99.20
2018-10-18T05:30:59.559Z,99.20
2018-10-18T05:33:29.651Z,99.50
2018-10-18T05:35:58.997Z,99.10
2018-10-18T05:38:28.339Z,99.50
2018-10-18T05:40:57.948Z,99.80
2018-10-18T05:43:27.813Z,99.20
2018-10-18T05:45:57.467Z,99.50
2018-10-18T05:48:27.706Z,98.60
2018-10-18T05:50:56.934Z,98.70
2018-10-18T05:53:26.071Z,98.50
2018-10-18T05:55:56.101Z,98.50
2018-10-18T05:58:25.557Z,98.50
2018-10-18T06:00:55.318Z,98.60
2018-10-18T06:03:25.523Z,98.70
2018-10-18T06:05:55.379Z,98.40
2018-10-18T06:08:25.216Z,99.00
2018-10-18T06:11:06.462Z,98.30
2018-10-18T06:13:36.025Z,98.20
2018-10-18T06:16:05.145Z,98.30
2018-10-18T06:18:34.393Z,98.40
2018-10-18T06:21:03.574Z,97.60
2018-10-18T06:23:33.998Z,96.70
2018-10-18T06:26:04.509Z,96.20
2018-10-18T06:28:35.403Z,96.80
2018-10-18T06:31:08.518Z,96.50
2018-10-18T06:33:39.528Z,95.90
2018-10-18T06:36:13.754Z,95.10
2018-10-18T06:38:43.569Z,93.90
2018-10-18T06:41:13.624Z,93.20
2018-10-18T06:43:43.246Z,93.00
2018-10-18T06:46:14.255Z,92.50
2018-10-18T06:48:44.885Z,91.80
2018-10-18T06:51:14.365Z,91.30
2018-10-18T06:53:43.814Z,90.40
2018-10-18T06:56:14.098Z,86.10
2018-10-18T06:58:45.387Z,81.80
2018-10-18T07:01:15.489Z,76.60
2018-10-18T07:03:44.692Z,74.70
2018-10-18T07:06:14.732Z,72.00
2018-10-18T07:08:44.207Z,69.30
2018-10-18T07:11:13.936Z,67.80
2018-10-18T07:13:43.525Z,66.00
2018-10-18T07:16:13.361Z,65.60
2018-10-18T07:18:43.107Z,62.80
2018-10-18T07:21:12.885Z,61.80
2018-10-18T07:23:42.861Z,61.00
2018-10-18T07:26:12.817Z,60.50
2018-10-18T07:28:42.555Z,58.60
2018-10-18T07:31:12.405Z,58.10
2018-10-18T07:33:41.914Z,56.50
2018-10-18T07:36:11.789Z,55.30
2018-10-18T07:38:41.432Z,53.70
2018-10-18T07:41:11.268Z,54.60
2018-10-18T07:43:41.076Z,56.30
2018-10-18T07:46:10.654Z,58.30
2018-10-18T07:48:40.379Z,60.10
2018-10-18T07:51:10.569Z,62.20
2018-10-18T07:53:40.360Z,62.90
2018-10-18T07:56:10.232Z,64.20
2018-10-18T07:58:40.117Z,64.10
2018-10-18T08:01:10.247Z,65.80
2018-10-18T08:03:40.046Z,67.00
2018-10-18T08:06:09.833Z,65.00
2018-10-18T08:08:39.510Z,62.10
2018-10-18T08:11:09.201Z,59.50
2018-10-18T08:13:39.262Z,57.40
2018-10-18T08:16:09.123Z,55.70
2018-10-18T08:18:38.549Z,54.50
2018-10-18T08:21:07.972Z,52.80
2018-10-18T08:23:37.882Z,52.50
2018-10-18T08:26:07.316Z,51.30
2018-10-18T08:28:36.334Z,51.80
2018-10-18T08:31:05.697Z,51.70
2018-10-18T08:33:35.223Z,51.60
2018-10-18T08:36:04.428Z,55.20
2018-10-18T08:38:33.486Z,57.60
2018-10-18T08:41:03.209Z,56.00
2018-10-18T08:43:32.234Z,54.80
2018-10-18T08:46:01.176Z,57.30
2018-10-18T08:48:30.502Z,58.80
2018-10-18T08:51:00.163Z,61.40
2018-10-18T08:53:29.629Z,63.90
2018-10-18T08:55:59.631Z,66.00
2018-10-18T08:58:29.566Z,66.80
2018-10-18T09:00:59.078Z,66.90
2018-10-18T09:03:28.670Z,67.20
2018-10-18T09:05:58.633Z,66.90
2018-10-18T09:08:28.319Z,66.70
2018-10-18T09:10:58.436Z,67.70
2018-10-18T09:13:28.444Z,68.40
2018-10-18T09:15:58.196Z,68.30
2018-10-18T09:18:27.973Z,67.00
2018-10-18T09:20:57.650Z,67.10
2018-10-18T09:23:27.388Z,67.40
2018-10-18T09:25:57.225Z,67.20
2018-10-18T09:28:27.514Z,66.70
2018-10-18T09:30:57.185Z,66.70
2018-10-18T09:33:27.038Z,67.50
2018-10-18T09:35:56.936Z,67.40
2018-10-18T09:38:26.900Z,66.90
2018-10-18T09:40:57.077Z,65.40
2018-10-18T09:43:30.467Z,64.60
2018-10-18T09:46:00.313Z,64.20
2018-10-18T09:48:29.805Z,64.50
2018-10-18T09:50:59.848Z,65.50
2018-10-18T09:53:29.698Z,65.70
2018-10-18T09:55:59.683Z,64.90
2018-10-18T09:58:29.755Z,66.50
2018-10-18T10:01:04.907Z,67.50
2018-10-18T10:03:35.324Z,67.50
2018-10-18T10:06:05.067Z,68.80
2018-10-18T10:08:35.068Z,68.80
2018-10-18T10:11:04.349Z,68.90
2018-10-18T10:13:34.202Z,68.50
2018-10-18T10:16:04.352Z,68.30
2018-10-18T10:18:33.933Z,67.30
2018-10-18T10:21:04.066Z,66.60
2018-10-18T10:23:33.939Z,67.60
2018-10-18T10:26:04.176Z,68.50
2018-10-18T10:28:33.797Z,68.30
2018-10-18T10:31:03.525Z,68.70
2018-10-18T10:33:33.810Z,68.80
2018-10-18T10:36:04.071Z,68.70
2018-10-18T10:38:34.673Z,68.40
2018-10-18T10:41:04.936Z,68.90
2018-10-18T10:43:34.653Z,69.70
2018-10-18T10:46:05.178Z,68.50
2018-10-18T10:48:36.511Z,69.00
2018-10-18T10:51:06.549Z,69.50
2018-10-18T10:53:38.207Z,69.20
2018-10-18T10:56:08.813Z,69.30
2018-10-18T10:58:39.223Z,69.30
2018-10-18T11:01:19.785Z,69.60
2018-10-18T11:03:50.184Z,71.40
2018-10-18T11:06:20.000Z,71.30
2018-10-18T11:08:49.869Z,72.10
2018-10-18T11:11:20.035Z,73.80
2018-10-18T11:13:51.726Z,75.20
2018-10-18T11:16:22.121Z,76.00
2018-10-18T11:18:51.629Z,75.60
2018-10-18T11:21:21.333Z,75.50
2018-10-18T11:23:52.964Z,75.80
2018-10-18T11:26:22.910Z,76.40
2018-10-18T11:28:54.278Z,77.50
2018-10-18T11:31:25.487Z,78.60
2018-10-18T11:33:58.093Z,78.90
2018-10-18T11:36:28.530Z,79.60
2018-10-18T11:38:58.040Z,79.50
2018-10-18T11:41:27.776Z,79.50
2018-10-18T11:43:57.557Z,80.10
2018-10-18T11:46:27.637Z,80.30
2018-10-18T11:48:58.219Z,80.30
2018-10-18T11:51:28.541Z,80.00
2018-10-18T11:53:59.643Z,80.90
2018-10-18T11:56:29.302Z,81.80
2018-10-18T11:58:59.398Z,81.40
2018-10-18T12:01:31.259Z,82.20
2018-10-18T12:04:01.159Z,82.80
2018-10-18T12:06:30.562Z,82.40
2018-10-18T12:08:59.875Z,82.20
2018-10-18T12:11:29.831Z,82.80
2018-10-18T12:13:59.616Z,82.30
2018-10-18T12:16:31.226Z,82.40
2018-10-18T12:19:06.757Z,82.80
2018-10-18T12:21:35.889Z,83.10
2018-10-18T12:24:06.832Z,83.30
2018-10-18T12:26:37.937Z,83.10
2018-10-18T12:29:07.803Z,84.40
2018-10-18T12:31:37.337Z,84.20
2018-10-18T12:34:06.893Z,84.70
2018-10-18T12:36:36.383Z,84.80
2018-10-18T12:39:08.026Z,86.30
2018-10-18T12:41:38.329Z,85.20
2018-10-18T12:44:07.383Z,85.70
2018-10-18T12:46:38.610Z,87.30
2018-10-18T12:49:08.173Z,88.30
2018-10-18T12:51:37.654Z,88.30
2018-10-18T12:54:08.839Z,89.00
2018-10-18T12:56:39.900Z,89.20
2018-10-18T12:59:12.021Z,89.70
2018-10-18T13:01:41.875Z,90.20
2018-10-18T13:04:12.693Z,90.90
2018-10-18T13:06:43.370Z,90.80
2018-10-18T13:09:12.793Z,90.70
2018-10-18T13:11:42.557Z,90.40
2018-10-18T13:14:12.334Z,90.80
2018-10-18T13:16:41.741Z,91.50
2018-10-18T13:19:11.123Z,90.80
2018-10-18T13:21:41.028Z,91.50
2018-10-18T13:24:10.407Z,92.10
2018-10-18T13:26:40.259Z,92.20
2018-10-18T13:29:10.937Z,94.10
2018-10-18T13:31:40.987Z,94.30
2018-10-18T13:34:11.404Z,95.40
2018-10-18T13:36:41.452Z,96.30
2018-10-18T13:39:15.271Z,96.80
2018-10-18T13:41:47.056Z,97.50
2018-10-18T13:44:17.365Z,98.00
2018-10-18T13:46:47.257Z,98.40
2018-10-18T13:49:16.369Z,99.30
2018-10-18T13:51:46.504Z,99.90
2018-10-18T13:54:17.934Z,99.90
2018-10-18T13:56:47.747Z,99.90
2018-10-18T13:59:28.412Z,99.90
2018-10-18T14:01:58.241Z,99.90
2018-10-18T14:04:27.481Z,99.90
2018-10-18T14:06:56.537Z,99.90
2018-10-18T14:09:25.463Z,99.90
2018-10-18T14:11:54.601Z,99.90
2018-10-18T14:14:24.022Z,99.90
2018-10-18T14:16:53.312Z,99.90
2018-10-18T14:19:23.880Z,99.90
2018-10-18T14:21:53.604Z,99.90
2018-10-18T14:24:22.803Z,99.90
2018-10-18T14:26:52.670Z,99.90
2018-10-18T14:29:22.686Z,99.90
2018-10-18T14:31:52.274Z,99.90
2018-10-18T14:34:21.993Z,99.90
2018-10-18T14:36:51.362Z,99.90
2018-10-18T14:39:21.128Z,99.90
2018-10-18T14:41:50.902Z,99.90
2018-10-18T14:44:21.154Z,99.90
2018-10-18T14:46:51.091Z,99.90
2018-10-18T14:49:21.291Z,99.90
2018-10-18T14:51:52.180Z,99.90
2018-10-18T14:54:22.447Z,99.90
2018-10-18T14:56:52.496Z,99.90
2018-10-18T14:59:23.436Z,99.90
2018-10-18T15:01:54.349Z,99.90
2018-10-18T15:04:24.435Z,99.90
2018-10-18T15:06:54.582Z,99.90
2018-10-18T15:09:25.421Z,99.90
2018-10-18T15:11:55.112Z,99.90
2018-10-18T15:14:25.481Z,99.90
2018-10-18T15:16:55.251Z,99.90
2018-10-18T15:19:28.068Z,99.90
2018-10-18T15:21:57.462Z,99.90
2018-10-18T15:24:27.115Z,99.90
2018-10-18T15:26:58.859Z,99.90
2018-10-18T15:29:28.916Z,99.90
2018-10-18T15:31:58.889Z,99.90
2018-10-18T15:34:28.673Z,99.90
2018-10-18T15:36:59.055Z,99.90
2018-10-18T15:39:28.944Z,99.90
2018-10-18T15:41:58.951Z,99.90
2018-10-18T15:44:30.224Z,99.90
2018-10-18T15:47:01.380Z,99.90
2018-10-18T15:49:31.345Z,99.90
2018-10-18T15:52:01.664Z,99.40
2018-10-18T15:54:32.132Z,99.90
2018-10-18T15:57:02.523Z,98.80
2018-10-18T15:59:32.314Z,99.90
2018-10-18T16:02:02.280Z,98.40
2018-10-18T16:04:32.419Z,97.80
2018-10-18T16:07:03.498Z,97.70
2018-10-18T16:09:33.108Z,97.20
2018-10-18T16:12:03.795Z,97.60
2018-10-18T16:14:35.634Z,96.40
2018-10-18T16:17:05.815Z,96.50
2018-10-18T16:19:37.993Z,97.10
2018-10-18T16:22:10.457Z,95.90
2018-10-18T16:27:48.931Z,97.40
2018-10-18T16:30:18.632Z,96.30
2018-10-18T16:32:48.025Z,96.40
2018-10-18T16:35:17.365Z,96.20
2018-10-18T16:37:47.345Z,95.80
2018-10-18T16:40:17.649Z,95.40
2018-10-18T16:42:46.899Z,96.30
2018-10-18T16:45:16.317Z,96.00
2018-10-18T16:47:46.209Z,95.80
2018-10-18T16:50:16.138Z,95.50
2018-10-18T16:52:46.570Z,95.70
2018-10-18T16:55:16.163Z,95.30
2018-10-18T16:57:45.885Z,95.90
2018-10-18T17:00:39.174Z,97.10
2018-10-18T17:03:14.815Z,96.20
2018-10-18T17:05:45.524Z,97.60
2018-10-18T17:08:15.467Z,97.90
2018-10-18T17:10:47.397Z,98.80
2018-10-18T17:13:18.377Z,97.90
2018-10-18T17:15:48.497Z,97.90
2018-10-18T17:18:18.541Z,97.70
2018-10-18T17:20:48.887Z,98.90
2018-10-18T17:23:18.506Z,99.30
2018-10-18T17:25:48.147Z,99.70
2018-10-18T17:28:18.633Z,98.70
2018-10-18T17:30:49.307Z,99.10
2018-10-18T17:33:20.070Z,99.90
2018-10-18T17:35:51.584Z,99.90
2018-10-18T17:38:23.113Z,98.90
2018-10-18T17:40:52.767Z,99.90
2018-10-18T17:43:22.596Z,99.70
2018-10-18T17:45:52.237Z,99.90
2018-10-18T17:48:21.906Z,99.10
2018-10-18T17:50:51.825Z,98.50
2018-10-18T17:53:25.462Z,98.80
2018-10-18T17:55:55.137Z,98.60
2018-10-18T17:58:24.817Z,97.70
2018-10-18T18:00:55.098Z,97.70
2018-10-18T18:03:24.642Z,95.70
2018-10-18T18:05:55.118Z,99.70
2018-10-18T18:08:24.777Z,99.90
2018-10-18T18:10:54.442Z,99.90
2018-10-18T18:13:25.303Z,99.90
2018-10-18T18:15:55.262Z,99.90
2018-10-18T18:18:25.484Z,99.90
2018-10-18T18:20:55.891Z,99.90
2018-10-18T18:23:25.904Z,99.90
2018-10-18T18:25:56.083Z,99.90
2018-10-18T18:28:26.410Z,99.90
2018-10-18T18:30:56.519Z,99.90
2018-10-18T18:33:28.997Z,99.90
2018-10-18T18:35:59.166Z,99.90
2018-10-18T18:38:30.111Z,99.90
2018-10-18T18:41:00.629Z,99.90
2018-10-18T18:43:30.977Z,99.90
2018-10-18T18:46:00.995Z,99.90
2018-10-18T18:48:31.743Z,99.90
2018-10-18T18:51:02.274Z,99.90
2018-10-18T18:53:33.102Z,99.90
2018-10-18T18:56:04.832Z,99.90
2018-10-18T18:58:34.743Z,99.90
2018-10-18T19:01:05.385Z,99.90
2018-10-18T19:03:36.436Z,99.90
2018-10-18T19:06:08.482Z,99.90
2018-10-18T19:08:39.737Z,99.90
2018-10-18T19:11:12.404Z,99.90
2018-10-18T19:13:42.075Z,99.90
2018-10-18T19:16:12.666Z,99.90
2018-10-18T19:18:43.757Z,99.90
2018-10-18T19:21:13.441Z,99.90
2018-10-18T19:23:43.251Z,99.90
2018-10-18T19:26:12.827Z,99.90
2018-10-18T19:28:43.695Z,99.90
2018-10-18T19:31:13.815Z,99.90
2018-10-18T19:33:44.303Z,99.90
2018-10-18T19:36:14.971Z,99.90
2018-10-18T19:38:46.161Z,99.90
2018-10-18T19:41:16.401Z,99.90
2018-10-18T19:43:47.098Z,99.90
2018-10-18T19:46:17.482Z,99.90
2018-10-18T19:48:48.030Z,99.90
2018-10-18T19:51:18.152Z,99.90
2018-10-18T19:53:48.701Z,99.90
2018-10-18T19:56:19.392Z,99.90
2018-10-18T19:58:49.980Z,99.90
2018-10-18T20:01:21.466Z,99.90
2018-10-18T20:03:52.500Z,99.90
2018-10-18T20:06:22.534Z,99.90
2018-10-18T20:08:52.885Z,99.90
2018-10-18T20:11:23.121Z,99.90
2018-10-18T20:13:53.817Z,99.90
2018-10-18T20:16:23.642Z,99.90
2018-10-18T20:18:53.209Z,99.90
2018-10-18T20:21:23.169Z,99.90
2018-10-18T20:23:56.513Z,99.90
2018-10-18T20:26:27.045Z,99.90
2018-10-18T20:28:57.095Z,99.90
2018-10-18T20:31:26.781Z,99.90
2018-10-18T20:33:56.246Z,99.90
2018-10-18T20:36:25.967Z,99.30
2018-10-18T20:38:55.949Z,94.40
2018-10-18T20:41:26.862Z,95.60
2018-10-18T20:43:56.255Z,94.80
2018-10-18T20:46:26.727Z,96.60
2018-10-18T20:48:56.511Z,98.10
2018-10-18T20:51:26.624Z,96.10
2018-10-18T20:53:56.941Z,97.60
2018-10-18T20:56:27.882Z,96.70
2018-10-18T20:58:58.897Z,95.50
2018-10-18T21:01:29.280Z,94.00
2018-10-18T21:03:59.167Z,95.10
2018-10-18T21:06:29.322Z,94.10
2018-10-18T21:08:59.398Z,95.30
2018-10-18T21:11:29.503Z,94.00
2018-10-18T21:13:59.031Z,94.80
2018-10-18T21:16:31.108Z,92.50
2018-10-18T21:19:00.629Z,93.00
2018-10-18T21:21:31.266Z,94.30
2018-10-18T21:24:01.558Z,92.50
2018-10-18T21:26:30.737Z,93.80
2018-10-18T21:29:00.542Z,93.40
2018-10-18T21:31:30.060Z,92.30
2018-10-18T21:34:00.277Z,92.20
2018-10-18T21:36:29.554Z,91.00
2018-10-18T21:38:58.872Z,90.20
2018-10-18T21:41:28.922Z,90.50
2018-10-18T21:43:58.569Z,90.70
2018-10-18T21:46:31.003Z,91.20
2018-10-18T21:49:00.870Z,90.30
2018-10-18T21:51:31.245Z,90.60
2018-10-18T21:54:01.611Z,90.40
2018-10-18T21:56:32.117Z,90.10
2018-10-18T21:59:02.128Z,89.10
2018-10-18T22:01:32.405Z,88.90
2018-10-18T22:04:02.964Z,89.00
2018-10-18T22:06:32.890Z,89.70
2018-10-18T22:09:02.273Z,88.30
2018-10-18T22:11:32.090Z,88.60
2018-10-18T22:14:02.085Z,87.10
2018-10-18T22:16:31.428Z,87.00
2018-10-18T22:19:01.134Z,87.70
2018-10-18T22:21:31.253Z,86.80
2018-10-18T22:24:00.611Z,86.10
2018-10-18T22:26:29.746Z,85.90
2018-10-18T22:28:59.469Z,86.60
2018-10-18T22:31:29.078Z,85.90
2018-10-18T22:33:59.308Z,85.90
2018-10-18T22:36:29.057Z,86.10
2018-10-18T22:38:58.798Z,86.10
2018-10-18T22:41:28.606Z,86.20
2018-10-18T22:43:57.770Z,86.50
2018-10-18T22:46:27.010Z,86.50
2018-10-18T22:48:56.441Z,86.50
2018-10-18T22:51:25.846Z,86.90
2018-10-18T22:53:55.251Z,87.20
2018-10-18T22:56:24.477Z,87.60
2018-10-18T22:58:53.594Z,88.10
2018-10-18T23:01:23.122Z,88.30
2018-10-18T23:03:52.461Z,88.40
2018-10-18T23:06:21.879Z,88.40
2018-10-18T23:08:51.239Z,89.20
2018-10-18T23:11:22.195Z,89.10
2018-10-18T23:13:51.778Z,89.30
2018-10-18T23:16:21.059Z,89.70
2018-10-18T23:18:54.984Z,89.60
2018-10-18T23:21:24.057Z,90.10
2018-10-18T23:23:53.244Z,90.20
2018-10-18T23:26:22.459Z,90.10
2018-10-18T23:28:51.963Z,90.20
2018-10-18T23:31:21.286Z,90.80
2018-10-18T23:33:50.722Z,91.50
2018-10-18T23:36:20.674Z,91.80
2018-10-18T23:38:50.542Z,92.50
2018-10-18T23:41:20.030Z,92.00
2018-10-18T23:43:50.162Z,92.10
2018-10-18T23:46:20.502Z,91.80
2018-10-18T23:48:51.722Z,92.30
2018-10-18T23:51:21.829Z,92.50
2018-10-18T23:53:52.022Z,92.50
2018-10-18T23:56:23.415Z,92.60
2018-10-18T23:58:53.431Z,93.30
